Ile-A-La-Crosse, Canada
Current Conditions -  °F | °C
As of 10:00 PM on Wednesday 28 Jan 2015 (Local Time) from CYVT Reporting Station
Few Clouds Few Clouds  
Wind Chill: -23°   Ceiling: Unl
Heat Index: -6°   Visibility: 15mi
Dew Point: -11°   Wind: 10mph
Humidity: 77%   Direction: 350°N
Pressure: 30.47"   Gusts: NA
Location:  55.43°N, 107.9°W
Report Text: CYVT 290400Z 35009KT 15SM FEW015 M21/M24 A3047 RMK SC2 SLP366
Loading
Personal Weather Stations






























Interactive Weather Map New forecast layout! Learn more

10-Day Weather Forecast

Advertisements
Track Severe Weather on mobile